Data for 11/02/2015

Time Sea-Level Adjusted Pressure Absolute Pressure Temperature Relative Humidity Dew Point   
(mb) (inHg) (mb) (inHg) (C) (F) (%) (C) (F)
00:05 1014 29.94 843 24.89 4.4 39.9 70 -0.6 30.9
00:10 1014 29.94 843 24.89 4.1 39.4 71 -0.6 30.9
00:15 1014 29.94 843 24.89 3.9 39 71 -0.8 30.6
00:20 1014 29.94 843 24.89 3.8 38.8 72 -0.8 30.5
00:25 1013 29.91 843 24.89 3.8 38.8 72 -0.9 30.4
00:30 1014 29.94 843 24.89 3.9 38.9 70 -1.1 30.1
00:35 1014 29.94 843 24.89 4 39.1 70 -1.1 30
00:40 1014 29.94 843 24.89 3.9 39 70 -1 30.1
00:45 1014 29.94 843 24.89 3.9 39.1 70 -1.1 30
00:50 1014 29.94 843 24.89 4.1 39.4 69 -1 30.1
00:55 1014 29.94 843 24.89 4.3 39.8 71 -0.5 31.1
01:00 1014 29.94 843 24.89 4.5 40.1 72 -0.1 31.9
01:05 1014 29.94 843 24.89 4.3 39.7 73 -0.1 31.9
01:10 1014 29.94 843 24.89 3.9 39 74 -0.3 31.5
01:15 1014 29.94 843 24.89 3.7 38.7 75 -0.4 31.3
01:20 1014 29.94 843 24.89 3.5 38.3 72 -1 30.2
01:25 1014 29.94 843 24.89 3.7 38.6 73 -0.8 30.6
01:30 1014 29.94 843 24.89 3.8 38.9 73 -0.5 31
01:35 1014 29.94 843 24.89 3.8 38.9 75 -0.2 31.7
01:40 1014 29.94 843 24.89 3.9 39 72 -0.7 30.8
01:45 1014 29.94 843 24.89 4 39.3 74 -0.2 31.6
01:50 1014 29.94 843 24.89 4.1 39.4 72 -0.5 31
01:55 1014 29.94 843 24.89 4.2 39.6 72 -0.3 31.5
02:00 1014 29.94 844 24.92 4.2 39.5 73 -0.2 31.7
02:05 1014 29.94 844 24.92 4.1 39.4 75 0 32
02:10 1014 29.94 844 24.92 3.9 39 78 0.4 32.7
02:15 1014 29.94 844 24.92 3.7 38.6 81 0.6 33.1
02:20 1015 29.97 844 24.92 3.5 38.3 83 0.8 33.5
02:25 1015 29.97 844 24.92 3.4 38.2 83 0.9 33.6
02:30 1015 29.97 844 24.92 3.5 38.3 82 0.8 33.4
02:35 1015 29.97 844 24.92 3.5 38.2 84 1 33.8
02:40 1015 29.97 844 24.92 3.4 38.1 84 0.9 33.6
02:45 1015 29.97 844 24.92 3.3 37.9 85 0.9 33.7
02:50 1015 29.97 844 24.92 3.2 37.8 85 1 33.8
02:55 1015 29.97 844 24.92 3.3 37.9 83 0.6 33.1
03:00 1015 29.97 844 24.92 3.3 38 82 0.5 32.8
03:05 1015 29.97 844 24.92 3.5 38.3 81 0.5 32.9
03:10 1015 29.97 844 24.92 3.5 38.3 81 0.6 33
03:15 1015 29.97 844 24.92 3.6 38.4 80 0.5 32.8
03:20 1015 29.97 844 24.92 3.6 38.5 81 0.6 33
03:25 1015 29.97 844 24.92 3.5 38.4 82 0.7 33.3
03:30 1015 29.97 844 24.92 3.6 38.4 81 0.7 33.2
03:35 1015 29.97 844 24.92 3.5 38.3 80 0.4 32.8
03:40 1015 29.97 844 24.92 3.5 38.2 81 0.6 33
03:45 1015 29.97 844 24.92 3.4 38.1 83 0.8 33.4
03:50 1015 29.97 844 24.92 3.4 38 81 0.4 32.7
03:55 1015 29.97 844 24.92 3.4 38.2 82 0.7 33.3
04:00 1015 29.97 844 24.92 3.5 38.3 84 1.1 34
04:05 1015 29.97 844 24.92 3.5 38.2 84 0.9 33.7
04:10 1015 29.97 844 24.92 3.3 38 82 0.5 33
04:15 1015 29.97 844 24.92 3.3 38 80 0.1 32.2
04:20 1015 29.97 844 24.92 3.4 38 80 0.3 32.5
04:25 1015 29.97 844 24.92 3.4 38.2 83 0.9 33.5
04:30 1015 29.97 844 24.92 3.4 38.1 82 0.6 33
04:35 1015 29.97 844 24.92 3.4 38.1 85 1.1 34.1
04:40 1015 29.97 844 24.92 3.3 37.9 86 1.2 34.2
04:45 1014 29.94 844 24.92 3.1 37.5 83 0.5 32.9
04:50 1015 29.97 844 24.92 3.1 37.6 83 0.5 33
04:55 1015 29.97 844 24.92 3.2 37.7 86 1.1 34.1
05:00 1014 29.94 844 24.92 3.1 37.6 87 1.2 34.1
05:05 1014 29.94 844 24.92 2.9 37.2 88 1.2 34.1
05:10 1014 29.94 844 24.92 2.8 37 88 1 33.9
05:15 1014 29.94 844 24.92 2.8 37 88 0.9 33.7
05:20 1014 29.94 844 24.92 2.7 36.9 88 1 33.8
05:25 1014 29.94 844 24.92 2.6 36.7 89 0.9 33.7
05:30 1014 29.94 844 24.92 2.5 36.5 87 0.6 33.1
05:35 1014 29.94 844 24.92 2.5 36.5 87 0.6 33.1
05:40 1014 29.94 844 24.92 2.5 36.5 87 0.5 32.9
05:45 1014 29.94 843 24.89 2.6 36.7 87 0.6 33
05:50 1014 29.94 843 24.89 2.6 36.6 87 0.6 33.1
05:55 1014 29.94 843 24.89 2.5 36.4 89 0.8 33.4
06:00 1014 29.94 843 24.89 2.3 36.2 90 0.8 33.4
06:05 1014 29.94 843 24.89 2.3 36.2 89 0.7 33.3
06:10 1014 29.94 843 24.89 2.4 36.3 89 0.7 33.2
06:15 1014 29.94 843 24.89 2.4 36.4 88 0.7 33.3
06:20 1014 29.94 843 24.89 2.5 36.4 88 0.7 33.2
06:25 1014 29.94 843 24.89 2.4 36.4 89 0.8 33.4
06:30 1014 29.94 843 24.89 2.2 36 89 0.7 33.2
06:35 1014 29.94 843 24.89 2.2 36 88 0.4 32.7
06:40 1014 29.94 843 24.89 2.4 36.3 88 0.6 33
06:45 1014 29.94 843 24.89 2.3 36.1 88 0.5 32.8
06:50 1014 29.94 843 24.89 2.2 36 88 0.4 32.8
06:55 1014 29.94 843 24.89 2.2 36 88 0.4 32.7
07:00 1014 29.94 843 24.89 2.4 36.2 87 0.5 32.9
07:05 1014 29.94 843 24.89 2.6 36.7 84 0.2 32.3
07:10 1014 29.94 843 24.89 2.8 37 84 0.3 32.5
07:15 1014 29.94 843 24.89 2.9 37.2 84 0.4 32.7
07:20 1014 29.94 843 24.89 2.9 37.2 85 0.7 33.2
07:25 1014 29.94 843 24.89 2.6 36.7 87 0.6 33
07:30 1014 29.94 843 24.89 2.3 36.1 88 0.5 32.9
07:35 1014 29.94 843 24.89 2 35.7 89 0.4 32.7
07:40 1013 29.91 843 24.89 1.9 35.4 89 0.2 32.4
07:45 1013 29.91 843 24.89 1.9 35.3 89 0.2 32.3
07:50 1013 29.91 843 24.89 1.8 35.2 89 0.1 32.2
07:55 1014 29.94 843 24.89 1.9 35.3 88 0 32
08:00 1014 29.94 843 24.89 2.1 35.8 85 -0.1 31.8
08:05 1014 29.94 843 24.89 2.4 36.3 83 -0.2 31.7
08:10 1014 29.94 843 24.89 2.5 36.4 84 0.1 32.1
08:15 1014 29.94 843 24.89 2.4 36.3 85 0.1 32.2
08:20 1014 29.94 843 24.89 2.4 36.2 85 0 32
08:25 1014 29.94 843 24.89 2.3 36.1 84 -0.1 31.9
08:30 1014 29.94 843 24.89 2.2 35.9 85 -0.1 31.8
08:35 1014 29.94 843 24.89 2.1 35.8 85 -0.1 31.8
08:40 1014 29.94 843 24.89 1.9 35.5 87 -0.1 31.9
08:45 1014 29.94 843 24.89 1.8 35.3 87 -0.1 31.8
08:50 1014 29.94 843 24.89 1.7 35.1 88 -0.1 31.9
08:55 1014 29.94 843 24.89 1.8 35.2 88 -0.1 31.8
09:00 1014 29.94 843 24.89 1.8 35.3 87 -0.1 31.9
09:05 1014 29.94 843 24.89 1.9 35.4 86 -0.1 31.8
09:10 1014 29.94 843 24.89 2 35.6 87 0 32
09:15 1014 29.94 843 24.89 2.1 35.8 87 0.2 32.3
09:20 1014 29.94 843 24.89 2.2 35.9 87 0.2 32.4
09:25 1014 29.94 843 24.89 2.2 35.9 87 0.1 32.3
09:30 1014 29.94 843 24.89 2.1 35.8 85 -0.1 31.9
09:35 1014 29.94 843 24.89 2.2 35.9 85 -0.1 31.9
09:40 1014 29.94 843 24.89 2.3 36.2 84 -0.1 31.9
09:45 1014 29.94 843 24.89 2.4 36.4 84 0 32
09:50 1014 29.94 843 24.89 2.5 36.6 83 0 32
09:55 1014 29.94 843 24.89 2.6 36.7 83 0.1 32.2
10:00 1013 29.91 843 24.89 2.7 36.9 82 -0 31.9
10:05 1013 29.91 843 24.89 2.8 37.1 82 0 32.1
10:10 1013 29.91 842 24.86 3 37.4 82 0.3 32.5
10:15 1013 29.91 842 24.86 3.1 37.5 82 0.3 32.5
10:20 1013 29.91 843 24.89 3.2 37.8 81 0.2 32.4
10:25 1013 29.91 843 24.89 3.4 38.1 78 -0.1 31.9
10:30 1014 29.94 843 24.89 3.5 38.4 79 0.2 32.3
10:35 1014 29.94 843 24.89 3.7 38.7 78 0.1 32.3
10:40 1014 29.94 843 24.89 3.9 39 78 0.4 32.7
10:45 1013 29.91 843 24.89 4 39.3 76 0.1 32.2
10:50 1013 29.91 843 24.89 4.1 39.4 75 0.1 32.2
10:55 1013 29.91 843 24.89 4.3 39.7 76 0.5 32.9
11:00 1013 29.91 842 24.86 4.4 39.9 77 0.7 33.2
11:05 1013 29.91 842 24.86 4.5 40.1 78 1 33.8
11:10 1013 29.91 842 24.86 4.6 40.3 79 1.3 34.3
11:15 1013 29.91 842 24.86 4.8 40.7 77 1.1 34
11:20 1013 29.91 842 24.86 4.9 40.8 77 1.2 34.1
11:25 1013 29.91 842 24.86 5 41 79 1.6 34.9
11:30 1013 29.91 842 24.86 5.1 41.1 77 1.3 34.3
11:35 1013 29.91 842 24.86 4.9 40.8 77 1.2 34.1
11:40 1013 29.91 842 24.86 4.9 40.9 76 1 33.9
11:45 1013 29.91 842 24.86 5.2 41.3 75 1.2 34.1
11:50 1013 29.91 842 24.86 5.3 41.6 75 1.3 34.3
11:55 1013 29.91 842 24.86 5.1 41.3 76 1.3 34.4
12:00 1013 29.91 842 24.86 5 40.9 74 0.8 33.4
12:05 1013 29.91 842 24.86 4.9 40.8 73 0.5 32.9
12:10 1013 29.91 842 24.86 5 41.1 73 0.6 33.1
12:15 1013 29.91 842 24.86 5.3 41.5 74 1 33.8
12:20 1013 29.91 842 24.86 5.5 41.9 74 1.2 34.1
12:25 1013 29.91 842 24.86 5.5 41.8 74 1.3 34.3
12:30 1013 29.91 842 24.86 5.6 42 73 1.1 34.1
12:35 1013 29.91 842 24.86 5.4 41.8 76 1.5 34.7
12:40 1013 29.91 842 24.86 5.2 41.3 74 1 33.7
12:45 1013 29.91 842 24.86 5.4 41.7 74 1.2 34.1
12:50 1013 29.91 842 24.86 5.3 41.6 74 1 33.8
12:55 1012 29.88 842 24.86 5.2 41.4 74 1 33.8
13:00 1012 29.88 842 24.86 5.7 42.2 74 1.3 34.4
13:05 1012 29.88 841 24.83 5.8 42.5 71 1 33.7
13:10 1012 29.88 841 24.83 6.1 43 70 1.1 33.9
13:15 1012 29.88 841 24.83 6.3 43.4 71 1.5 34.6
13:20 1012 29.88 841 24.83 6.5 43.8 70 1.5 34.7
13:25 1012 29.88 841 24.83 6.6 43.8 69 1.3 34.4
13:30 1012 29.88 841 24.83 6.6 43.9 69 1.2 34.2
13:35 1012 29.88 841 24.83 6.5 43.6 70 1.4 34.6
13:40 1012 29.88 841 24.83 6.5 43.7 68 1.1 33.9
13:45 1012 29.88 841 24.83 6.7 44 68 1.2 34.2
13:50 1012 29.88 841 24.83 6.9 44.3 68 1.4 34.5
13:55 1012 29.88 841 24.83 7 44.6 67 1.3 34.3
14:00 1012 29.88 841 24.83 6.9 44.5 66 1 33.7
14:05 1012 29.88 841 24.83 6.8 44.2 66 0.9 33.7
14:10 1012 29.88 841 24.83 6.8 44.2 66 0.8 33.5
14:15 1012 29.88 841 24.83 6.8 44.2 66 0.9 33.6
14:20 1012 29.88 841 24.83 6.6 44 66 0.8 33.4
14:25 1012 29.88 841 24.83 6.6 43.9 65 0.5 32.9
14:30 1012 29.88 841 24.83 6.7 44.1 64 0.3 32.6
14:35 1012 29.88 841 24.83 6.7 44.1 63 0.1 32.2
14:40 1012 29.88 841 24.83 6.6 43.9 61 -0.3 31.4
14:45 1011 29.85 841 24.83 6.5 43.8 61 -0.5 31.2
14:50 1011 29.85 841 24.83 6.6 43.8 62 -0.2 31.6
14:55 1011 29.85 841 24.83 6.5 43.8 63 -0.1 31.9
15:00 1011 29.85 840 24.81 6.5 43.8 62 -0.1 31.8
15:05 1011 29.85 840 24.81 6.6 43.9 62 -0 31.9
15:10 1011 29.85 840 24.81 6.6 43.9 63 -0 32
15:15 1011 29.85 840 24.81 6.5 43.8 64 0.1 32.3
15:20 1011 29.85 840 24.81 6.5 43.7 62 -0.1 31.8
15:25 1011 29.85 840 24.81 6.5 43.6 63 -0.1 31.8
15:30 1011 29.85 840 24.81 6.5 43.7 62 -0.3 31.5
15:35 1011 29.85 840 24.81 6.5 43.7 62 -0.2 31.6
15:40 1011 29.85 840 24.81 6.4 43.5 63 -0.1 31.7
15:45 1011 29.85 840 24.81 6 42.8 65 -0.1 31.8
15:50 1011 29.85 840 24.81 6 42.7 65 -0.2 31.7
15:55 1011 29.85 840 24.81 5.8 42.5 65 -0.2 31.7
16:00 1011 29.85 840 24.81 5.8 42.5 65 -0.2 31.7
16:05 1011 29.85 840 24.81 6 42.7 64 -0.3 31.5
16:10 1011 29.85 840 24.81 6.1 42.9 62 -0.7 30.8
16:15 1011 29.85 840 24.81 6.1 42.9 63 -0.4 31.3
16:20 1011 29.85 840 24.81 5.8 42.4 65 -0.2 31.7
16:25 1011 29.85 840 24.81 5.7 42.3 66 -0.2 31.7
16:30 1011 29.85 840 24.81 5.8 42.4 66 -0.2 31.7
16:35 1011 29.85 840 24.81 5.8 42.4 66 -0.1 31.7
16:40 1011 29.85 840 24.81 5.7 42.3 66 -0 31.9
16:45 1011 29.85 840 24.81 5.7 42.3 66 -0.1 31.9
16:50 1011 29.85 840 24.81 5.7 42.2 66 -0.1 31.9
16:55 1011 29.85 840 24.81 5.7 42.3 66 -0 32
17:00 1011 29.85 840 24.81 5.7 42.3 66 -0 32
17:05 1011 29.85 840 24.81 5.6 42.1 67 -0 32
17:10 1011 29.85 840 24.81 5.6 42.1 68 0.2 32.4
17:15 1011 29.85 840 24.81 5.6 42 70 0.6 33.1
17:20 1011 29.85 840 24.81 5.6 42 70 0.5 32.9
17:25 1011 29.85 840 24.81 5.6 42 69 0.3 32.6
17:30 1011 29.85 840 24.81 5.2 41.3 70 0.2 32.3
17:35 1011 29.85 840 24.81 4.7 40.5 74 0.6 33
17:40 1011 29.85 840 24.81 4.5 40 78 1 33.8
17:45 1011 29.85 840 24.81 4.4 39.9 76 0.6 33.1
17:50 1011 29.85 840 24.81 4.2 39.6 79 1 33.7
17:55 1011 29.85 840 24.81 4 39.2 81 1 33.8
18:00 1011 29.85 840 24.81 3.9 39 83 1.3 34.3
18:05 1011 29.85 840 24.81 3.9 39 84 1.4 34.6
18:10 1011 29.85 840 24.81 3.9 38.9 81 0.8 33.5
18:15 1011 29.85 840 24.81 3.8 38.8 82 1 33.8
18:20 1011 29.85 840 24.81 3.6 38.5 83 1 33.8
18:25 1011 29.85 840 24.81 3.5 38.4 84 1.1 34
18:30 1011 29.85 840 24.81 3.5 38.3 84 1.1 33.9
18:35 1011 29.85 840 24.81 3.4 38.2 86 1.3 34.3
18:40 1011 29.85 840 24.81 3.3 38 86 1.2 34.2
18:45 1011 29.85 840 24.81 3.2 37.8 87 1.3 34.3
18:50 1011 29.85 840 24.81 3.1 37.6 87 1.2 34.1
18:55 1011 29.85 840 24.81 3 37.4 88 1.2 34.1
19:00 1011 29.85 840 24.81 2.9 37.3 88 1.2 34.2
19:05 1011 29.85 840 24.81 2.9 37.1 89 1.2 34.1
19:10 1011 29.85 840 24.81 2.8 37.1 89 1.1 34.1
19:15 1011 29.85 840 24.81 2.8 37.1 87 0.9 33.6
19:20 1011 29.85 840 24.81 2.8 37 87 0.8 33.5
19:25 1011 29.85 840 24.81 2.8 37 87 0.7 33.3
19:30 1011 29.85 840 24.81 2.7 36.8 88 0.9 33.6
19:35 1011 29.85 840 24.81 2.6 36.7 87 0.7 33.3
19:40 1011 29.85 840 24.81 2.5 36.6 88 0.7 33.3
19:45 1011 29.85 840 24.81 2.4 36.4 88 0.6 33.1
19:50 1011 29.85 840 24.81 2.3 36.2 88 0.6 33.1
19:55 1011 29.85 840 24.81 2.3 36.1 89 0.7 33.2
20:00 1011 29.85 840 24.81 2.2 36 89 0.7 33.2
20:05 1011 29.85 840 24.81 2.2 35.9 90 0.6 33.2
20:10 1011 29.85 840 24.81 2.1 35.8 90 0.6 33.1
20:15 1011 29.85 840 24.81 2.1 35.7 90 0.6 33.2
20:20 1010 29.83 840 24.81 2 35.7 90 0.6 33.1
20:25 1010 29.83 840 24.81 2 35.5 90 0.5 32.9
20:30 1010 29.83 840 24.81 1.9 35.4 90 0.5 32.9
20:35 1010 29.83 840 24.81 1.9 35.3 91 0.5 32.9
20:40 1010 29.83 840 24.81 1.8 35.3 91 0.5 32.9
20:45 1010 29.83 840 24.81 1.8 35.3 90 0.4 32.7
20:50 1010 29.83 840 24.81 1.8 35.3 91 0.5 32.8
20:55 1010 29.83 840 24.81 1.8 35.3 91 0.5 32.9
21:00 1010 29.83 840 24.81 1.8 35.3 90 0.4 32.7
21:05 1010 29.83 840 24.81 1.8 35.3 90 0.4 32.7
21:10 1010 29.83 840 24.81 1.8 35.3 90 0.4 32.7
21:15 1010 29.83 840 24.81 1.8 35.2 91 0.4 32.7
21:20 1010 29.83 840 24.81 1.8 35.2 90 0.4 32.7
21:25 1010 29.83 839 24.78 1.7 35.1 90 0.3 32.5
21:30 1010 29.83 839 24.78 1.7 35 91 0.3 32.5
21:35 1010 29.83 840 24.81 1.6 35 91 0.3 32.6
21:40 1010 29.83 840 24.81 1.6 34.9 91 0.3 32.5
21:45 1010 29.83 839 24.78 1.5 34.8 91 0.2 32.4
21:50 1010 29.83 839 24.78 1.5 34.7 91 0.2 32.3
21:55 1010 29.83 839 24.78 1.4 34.6 91 0.2 32.3
22:00 1010 29.83 839 24.78 1.4 34.5 91 0.1 32.2
22:05 1010 29.83 839 24.78 1.3 34.4 91 0.1 32.1
22:10 1010 29.83 839 24.78 1.2 34.2 91 -0 32
22:15 1010 29.83 839 24.78 1.1 34 92 -0.1 31.8
22:20 1010 29.83 840 24.81 1 33.9 92 -0.1 31.8
22:25 1010 29.83 839 24.78 0.9 33.7 92 -0.2 31.7
22:30 1010 29.83 839 24.78 0.9 33.6 93 -0.2 31.6
22:35 1010 29.83 840 24.81 0.8 33.5 93 -0.3 31.5
22:40 1010 29.83 840 24.81 0.8 33.5 93 -0.2 31.6
22:45 1010 29.83 839 24.78 0.7 33.3 93 -0.3 31.4
22:50 1010 29.83 839 24.78 0.7 33.2 93 -0.4 31.4
22:55 1010 29.83 839 24.78 0.6 33.1 93 -0.4 31.3
23:00 1010 29.83 839 24.78 0.6 33 93 -0.4 31.2
23:05 1010 29.83 839 24.78 0.6 33 93 -0.4 31.2
23:10 1010 29.83 839 24.78 0.6 33 93 -0.4 31.3
23:15 1010 29.83 839 24.78 0.5 32.9 93 -0.5 31.2
23:20 1010 29.83 839 24.78 0.5 32.8 93 -0.5 31.1
23:25 1010 29.83 839 24.78 0.4 32.8 93 -0.5 31
23:30 1010 29.83 839 24.78 0.4 32.8 93 -0.5 31.1
23:35 1010 29.83 839 24.78 0.4 32.7 93 -0.6 31
23:40 1010 29.83 839 24.78 0.3 32.5 94 -0.6 30.9
23:45 1010 29.83 839 24.78 0.3 32.5 94 -0.6 30.9
23:50 1010 29.83 839 24.78 0.3 32.6 94 -0.6 31
23:55 1010 29.83 839 24.78 0.3 32.6 94 -0.6 31
24:00 1010 29.83 839 24.78 0.3 32.5 94 -0.6 30.8